createdAt,value
2023-02-01T00:00:59.337Z,95105.34
2023-02-01T00:03:25.841Z,95103.75
2023-02-01T00:05:59.001Z,95100.66
2023-02-01T00:08:25.456Z,95088.94
2023-02-01T00:11:18.289Z,95090.78
2023-02-01T00:13:44.767Z,95097.69
2023-02-01T00:16:19.102Z,95087.88
2023-02-01T00:18:46.446Z,95080.22
2023-02-01T00:21:13.629Z,95099.41
2023-02-01T00:23:40.142Z,95096.44
2023-02-01T00:26:07.804Z,95095.63
2023-02-01T00:28:34.287Z,95091.88
2023-02-01T00:31:02.023Z,95093.53
2023-02-01T00:33:29.355Z,95088.31
2023-02-01T00:36:04.193Z,95090.09
2023-02-01T00:38:31.354Z,95092.00
2023-02-01T00:41:04.867Z,95088.09
2023-02-01T00:43:32.078Z,95078.00
2023-02-01T00:45:58.633Z,95078.13
2023-02-01T00:48:25.339Z,95062.22
2023-02-01T00:50:52.218Z,95070.69
2023-02-01T00:53:18.723Z,95062.22
2023-02-01T00:55:48.673Z,95049.47
2023-02-01T00:58:15.433Z,95057.94
2023-02-01T01:00:42.135Z,95058.13
2023-02-01T01:03:18.567Z,95060.38
2023-02-01T01:05:49.335Z,95061.00
2023-02-01T01:08:16.772Z,95063.25
2023-02-01T01:10:43.763Z,95058.97
2023-02-01T01:13:10.542Z,95058.78
2023-02-01T01:15:40.607Z,95056.66
2023-02-01T01:18:07.154Z,95055.03
2023-02-01T01:20:37.889Z,95044.25
2023-02-01T01:23:04.946Z,95043.69
2023-02-01T01:25:31.569Z,95038.75
2023-02-01T01:27:58.059Z,95031.66
2023-02-01T01:30:24.927Z,95045.81
2023-02-01T01:32:52.955Z,95041.31
2023-02-01T01:35:19.531Z,95058.16
2023-02-01T01:37:45.976Z,95048.97
2023-02-01T01:40:12.614Z,95062.69
2023-02-01T01:42:39.694Z,95057.56
2023-02-01T01:45:09.346Z,95054.13
2023-02-01T01:47:41.305Z,95061.50
2023-02-01T01:50:11.341Z,95060.69
2023-02-01T01:52:38.527Z,95056.09
2023-02-01T01:55:05.658Z,95068.78
2023-02-01T01:57:34.493Z,95071.69
2023-02-01T02:00:03.740Z,95069.72
2023-02-01T02:02:30.341Z,95060.44
2023-02-01T02:04:56.998Z,95069.38
2023-02-01T02:07:29.676Z,95060.34
2023-02-01T02:10:01.054Z,95075.50
2023-02-01T02:12:28.012Z,95056.22
2023-02-01T02:14:54.907Z,95067.03
2023-02-01T02:17:27.480Z,95056.59
2023-02-01T02:20:14.162Z,95059.34
2023-02-01T02:22:43.660Z,95047.75
2023-02-01T02:25:28.853Z,95037.66
2023-02-01T02:28:01.296Z,95044.50
2023-02-01T02:30:42.988Z,95032.06
2023-02-01T02:33:12.440Z,95030.91
2023-02-01T02:35:48.283Z,95031.34
2023-02-01T02:38:33.299Z,95033.81
2023-02-01T02:41:39.946Z,95031.47
2023-02-01T02:44:31.247Z,95039.31
2023-02-01T02:47:19.791Z,95046.41
2023-02-01T02:50:11.957Z,95052.09
2023-02-01T02:53:01.864Z,95053.38
2023-02-01T02:55:29.588Z,95044.53
2023-02-01T02:58:15.787Z,95032.56
2023-02-01T03:01:01.674Z,95043.78
2023-02-01T03:03:46.977Z,95040.38
2023-02-01T03:06:16.843Z,95042.63
2023-02-01T03:08:46.184Z,95050.28
2023-02-01T03:11:16.238Z,95059.59
2023-02-01T03:13:52.011Z,95074.47
2023-02-01T03:16:29.472Z,95076.81
2023-02-01T03:19:03.225Z,95105.28
2023-02-01T03:21:36.509Z,95097.59
2023-02-01T03:24:05.081Z,95082.34
2023-02-01T03:26:32.339Z,95093.50
2023-02-01T03:29:03.451Z,95089.97
2023-02-01T03:31:30.149Z,95098.44
2023-02-01T03:33:56.782Z,95104.41
2023-02-01T03:36:27.845Z,95123.94
2023-02-01T03:39:00.580Z,95117.91
2023-02-01T03:41:36.326Z,95144.03
2023-02-01T03:44:08.215Z,95118.28
2023-02-01T03:46:37.156Z,95133.41
2023-02-01T03:49:06.671Z,95123.94
2023-02-01T03:51:34.083Z,95123.94
2023-02-01T03:54:02.684Z,95113.47
2023-02-01T03:56:30.523Z,95115.47
2023-02-01T03:59:00.200Z,95115.94
2023-02-01T04:01:27.904Z,95121.97
2023-02-01T04:03:54.587Z,95104.69
2023-02-01T04:06:21.373Z,95116.72
2023-02-01T04:08:48.115Z,95122.78
2023-02-01T04:11:14.783Z,95127.19
2023-02-01T04:13:41.245Z,95122.88
2023-02-01T04:16:07.718Z,95128.47
2023-02-01T04:18:34.167Z,95123.53
2023-02-01T04:21:02.153Z,95119.72
2023-02-01T04:23:28.973Z,95132.97
2023-02-01T04:25:59.538Z,95122.53
2023-02-01T04:28:26.020Z,95125.78
2023-02-01T04:30:52.518Z,95123.34
2023-02-01T04:33:18.973Z,95135.88
2023-02-01T04:35:45.485Z,95128.66
2023-02-01T04:38:12.161Z,95142.09
2023-02-01T04:40:38.868Z,95128.03
2023-02-01T04:43:05.483Z,95121.84
2023-02-01T04:45:31.953Z,95133.91
2023-02-01T04:47:58.374Z,95140.41
2023-02-01T04:50:25.261Z,95144.47
2023-02-01T04:52:51.741Z,95149.69
2023-02-01T04:55:18.236Z,95152.84
2023-02-01T04:57:44.708Z,95158.16
2023-02-01T05:00:11.544Z,95150.03
2023-02-01T05:02:38.729Z,95152.75
2023-02-01T05:05:05.533Z,95160.13
2023-02-01T05:07:31.939Z,95166.19
2023-02-01T05:09:58.445Z,95171.41
2023-02-01T05:12:43.524Z,95156.19
2023-02-01T05:15:10.021Z,95175.13
2023-02-01T05:17:36.477Z,95168.25
2023-02-01T05:20:03.021Z,95160.88
2023-02-01T05:22:29.458Z,95160.53
2023-02-01T05:24:55.934Z,95156.28
2023-02-01T05:27:22.472Z,95158.41
2023-02-01T05:29:48.899Z,95150.38
2023-02-01T05:32:23.378Z,95160.38
2023-02-01T05:34:50.339Z,95175.50
2023-02-01T05:37:16.872Z,95173.06
2023-02-01T05:39:43.308Z,95180.09
2023-02-01T05:42:09.863Z,95180.09
2023-02-01T05:44:36.290Z,95174.50
2023-02-01T05:47:02.748Z,95197.06
2023-02-01T05:49:29.320Z,95185.03
2023-02-01T05:51:55.736Z,95186.03
2023-02-01T05:54:22.187Z,95194.84
2023-02-01T05:56:48.621Z,95196.50
2023-02-01T05:59:15.081Z,95193.25
2023-02-01T06:01:41.627Z,95193.78
2023-02-01T06:04:08.133Z,95195.75
2023-02-01T06:06:35.160Z,95191.50
2023-02-01T06:09:01.792Z,95185.19
2023-02-01T06:11:33.071Z,95191.03
2023-02-01T06:14:00.385Z,95188.50
2023-02-01T06:16:27.305Z,95183.25
2023-02-01T06:18:55.025Z,95196.97
2023-02-01T06:21:25.012Z,95191.47
2023-02-01T06:23:52.215Z,95191.81
2023-02-01T06:26:19.201Z,95187.56
2023-02-01T06:28:45.683Z,95187.22
2023-02-01T06:31:12.947Z,95183.63
2023-02-01T06:33:41.518Z,95184.63
2023-02-01T06:36:08.630Z,95187.84
2023-02-01T06:38:35.879Z,95194.19
2023-02-01T06:41:03.282Z,95187.81
2023-02-01T06:43:29.743Z,95193.66
2023-02-01T06:46:00.471Z,95194.28
2023-02-01T06:48:26.980Z,95192.31
2023-02-01T06:50:53.520Z,95192.84
2023-02-01T06:53:20.076Z,95195.47
2023-02-01T06:55:53.326Z,95193.81
2023-02-01T06:58:19.787Z,95206.72
2023-02-01T07:00:46.286Z,95184.00
2023-02-01T07:03:12.774Z,95197.84
2023-02-01T07:05:39.197Z,95188.38
2023-02-01T07:08:05.654Z,95195.22
2023-02-01T07:10:32.074Z,95208.94
2023-02-01T07:12:58.961Z,95202.53
2023-02-01T07:15:25.547Z,95198.13
2023-02-01T07:17:52.019Z,95221.72
2023-02-01T07:20:18.555Z,95221.25
2023-02-01T07:22:44.970Z,95207.91
2023-02-01T07:25:11.387Z,95221.44
2023-02-01T07:27:38.123Z,95217.63
2023-02-01T07:30:05.444Z,95208.09
2023-02-01T07:32:31.978Z,95208.09
2023-02-01T07:34:59.014Z,95210.72
2023-02-01T07:37:25.609Z,95219.91
2023-02-01T07:39:52.268Z,95208.19
2023-02-01T07:42:19.202Z,95210.44
2023-02-01T07:44:45.723Z,95216.84
2023-02-01T07:47:12.412Z,95216.47
2023-02-01T07:49:38.862Z,95218.81
2023-02-01T07:52:05.342Z,95210.31
2023-02-01T07:54:31.780Z,95215.56
2023-02-01T07:56:58.257Z,95218.47
2023-02-01T07:59:24.689Z,95215.16
2023-02-01T08:01:51.138Z,95206.78
2023-02-01T08:04:17.630Z,95211.00
2023-02-01T08:06:44.151Z,95199.03
2023-02-01T08:09:11.857Z,95199.88
2023-02-01T08:11:39.040Z,95194.16
2023-02-01T08:14:06.955Z,95183.34
2023-02-01T08:16:35.195Z,95183.44
2023-02-01T08:19:01.928Z,95182.31
2023-02-01T08:21:38.221Z,95174.09
2023-02-01T08:24:05.540Z,95189.25
2023-02-01T08:26:32.025Z,95185.28
2023-02-01T08:29:00.679Z,95188.53
2023-02-01T08:31:27.970Z,95195.03
2023-02-01T08:33:56.216Z,95193.22
2023-02-01T08:36:23.841Z,95189.00
2023-02-01T08:38:50.871Z,95195.22
2023-02-01T08:41:18.923Z,95201.44
2023-02-01T08:43:45.944Z,95199.00
2023-02-01T08:46:12.922Z,95201.53
2023-02-01T08:48:39.699Z,95204.81
2023-02-01T08:51:07.709Z,95201.94
2023-02-01T08:53:34.133Z,95206.34
2023-02-01T08:56:00.616Z,95210.06
2023-02-01T08:58:27.345Z,95202.94
2023-02-01T09:00:53.845Z,95207.69
2023-02-01T09:03:20.387Z,95206.69
2023-02-01T09:05:49.661Z,95212.09
2023-02-01T09:08:16.684Z,95199.69
2023-02-01T09:10:43.318Z,95207.16
2023-02-01T09:13:10.283Z,95210.06
2023-02-01T09:15:37.895Z,95196.34
2023-02-01T09:18:04.631Z,95196.13
2023-02-01T09:20:31.140Z,95201.81
2023-02-01T09:22:57.610Z,95193.69
2023-02-01T09:25:24.283Z,95205.38
2023-02-01T09:27:50.843Z,95189.19
2023-02-01T09:30:17.386Z,95193.22
2023-02-01T09:32:43.911Z,95185.03
2023-02-01T09:35:10.386Z,95193.31
2023-02-01T09:37:38.497Z,95184.22
2023-02-01T09:40:05.255Z,95183.03
2023-02-01T09:42:43.727Z,95186.47
2023-02-01T09:45:12.933Z,95180.25
2023-02-01T09:47:41.128Z,95180.69
2023-02-01T09:50:15.593Z,95177.13
2023-02-01T09:52:45.154Z,95181.97
2023-02-01T09:55:17.412Z,95184.41
2023-02-01T09:57:58.887Z,95177.72
2023-02-01T10:00:30.937Z,95166.91
2023-02-01T10:02:57.557Z,95170.50
2023-02-01T10:05:52.659Z,95172.41
2023-02-01T10:08:27.297Z,95170.53
2023-02-01T10:10:58.015Z,95170.06
2023-02-01T10:13:43.132Z,95167.19
2023-02-01T10:16:12.677Z,95156.34
2023-02-01T10:18:50.925Z,95158.41
2023-02-01T10:21:28.686Z,95142.19
2023-02-01T10:24:16.084Z,95141.00
2023-02-01T10:26:45.973Z,95142.00
2023-02-01T10:29:23.780Z,95136.03
2023-02-01T10:31:50.324Z,95126.47
2023-02-01T10:34:27.121Z,95124.66
2023-02-01T10:36:58.295Z,95124.66
2023-02-01T10:39:25.263Z,95123.66
2023-02-01T10:41:51.989Z,95118.81
2023-02-01T10:44:20.667Z,95109.56
2023-02-01T10:46:47.205Z,95109.69
2023-02-01T10:49:43.228Z,95108.47
2023-02-01T10:52:13.528Z,95100.88
2023-02-01T10:54:40.483Z,95099.72
2023-02-01T10:57:11.377Z,95101.78
2023-02-01T10:59:38.531Z,95098.16
2023-02-01T11:02:21.634Z,95083.06
2023-02-01T11:04:48.186Z,95078.91
2023-02-01T11:07:20.488Z,95080.41
2023-02-01T11:09:51.421Z,95083.81
2023-02-01T11:12:33.266Z,95076.22
2023-02-01T11:15:02.217Z,95077.91
2023-02-01T11:17:31.585Z,95074.47
2023-02-01T11:19:59.542Z,95069.47
2023-02-01T11:22:26.888Z,95063.50
2023-02-01T11:24:53.521Z,95069.22
2023-02-01T11:27:27.670Z,95067.69
2023-02-01T11:29:57.475Z,95064.03
2023-02-01T11:32:24.730Z,95072.84
2023-02-01T11:34:56.596Z,95067.59
2023-02-01T11:37:25.942Z,95069.19
2023-02-01T11:39:55.107Z,95055.06
2023-02-01T11:42:21.926Z,95058.75
2023-02-01T11:44:48.941Z,95057.75
2023-02-01T11:47:22.768Z,95061.63
2023-02-01T11:49:50.777Z,95062.00
2023-02-01T11:52:23.269Z,95070.47
2023-02-01T11:54:49.694Z,95062.97
2023-02-01T11:57:19.187Z,95073.66
2023-02-01T11:59:56.238Z,95080.44
2023-02-01T12:02:42.257Z,95078.22
2023-02-01T12:05:27.587Z,95072.03
2023-02-01T12:08:12.864Z,95069.63
2023-02-01T12:10:45.286Z,95061.75
2023-02-01T12:13:30.565Z,95059.75
2023-02-01T12:16:05.970Z,95049.66
2023-02-01T12:18:38.296Z,95054.91
2023-02-01T12:21:07.212Z,95061.38
2023-02-01T12:24:09.499Z,95055.69
2023-02-01T12:26:48.716Z,95053.28
2023-02-01T12:29:27.571Z,95047.84
2023-02-01T12:32:00.480Z,95046.03
2023-02-01T12:34:26.979Z,95026.69
2023-02-01T12:36:53.380Z,95034.97
2023-02-01T12:39:22.841Z,95042.41
2023-02-01T12:42:05.100Z,95045.22
2023-02-01T12:44:34.607Z,95042.41
2023-02-01T12:47:05.595Z,95034.81
2023-02-01T12:49:50.258Z,95037.34
2023-02-01T12:52:21.257Z,95038.75
2023-02-01T12:54:51.483Z,95028.53
2023-02-01T12:57:27.111Z,95018.66
2023-02-01T13:00:07.663Z,95029.94
2023-02-01T13:02:43.685Z,95022.31
2023-02-01T13:05:18.693Z,95021.97
2023-02-01T13:07:50.969Z,95017.13
2023-02-01T13:10:17.516Z,95022.56
2023-02-01T13:12:55.621Z,95020.56
2023-02-01T13:15:42.750Z,95026.00
2023-02-01T13:18:14.450Z,95023.63
2023-02-01T13:21:01.140Z,95010.09
2023-02-01T13:23:27.864Z,95022.22
2023-02-01T13:25:54.996Z,95019.94
2023-02-01T13:28:26.779Z,95019.94
2023-02-01T13:30:59.381Z,95022.81
2023-02-01T13:33:53.434Z,95021.19
2023-02-01T13:36:25.464Z,95017.94
2023-02-01T13:38:51.965Z,95014.91
2023-02-01T13:41:27.832Z,95011.50
2023-02-01T13:43:57.036Z,95013.09
2023-02-01T13:46:23.847Z,95008.28
2023-02-01T13:48:52.393Z,95004.66
2023-02-01T13:51:48.148Z,95005.28
2023-02-01T13:54:29.737Z,95003.06
2023-02-01T13:56:56.691Z,94991.38
2023-02-01T13:59:41.303Z,95000.66
2023-02-01T14:02:26.504Z,94990.63
2023-02-01T14:04:52.938Z,94995.03
2023-02-01T14:07:20.384Z,94996.25
2023-02-01T14:09:47.060Z,94995.63
2023-02-01T14:12:32.016Z,94992.63
2023-02-01T14:15:17.239Z,94985.75
2023-02-01T14:17:43.807Z,94985.97
2023-02-01T14:20:29.164Z,94990.00
2023-02-01T14:23:05.328Z,94990.81
2023-02-01T14:25:35.184Z,94997.28
2023-02-01T14:28:02.447Z,94990.63
2023-02-01T14:30:28.938Z,94991.75
2023-02-01T14:32:55.451Z,94987.34
2023-02-01T14:35:27.097Z,94996.59
2023-02-01T14:37:55.110Z,94991.38
2023-02-01T14:40:26.013Z,94990.78
2023-02-01T14:42:55.772Z,94988.50
2023-02-01T14:45:26.120Z,94991.13
2023-02-01T14:47:52.850Z,94992.13
2023-02-01T14:50:41.973Z,94997.75
2023-02-01T14:53:14.090Z,94994.91
2023-02-01T14:55:50.529Z,94989.22
2023-02-01T14:58:29.082Z,94996.50
2023-02-01T15:00:57.060Z,95001.16
2023-02-01T15:03:26.545Z,94997.97
2023-02-01T15:05:58.153Z,95006.25
2023-02-01T15:08:29.541Z,95002.00
2023-02-01T15:10:57.407Z,95005.22
2023-02-01T15:13:25.651Z,94998.97
2023-02-01T15:16:24.732Z,94996.16
2023-02-01T15:18:51.325Z,94996.16
2023-02-01T15:21:28.231Z,94993.75
2023-02-01T15:24:12.057Z,94988.88
2023-02-01T15:26:38.622Z,94994.13
2023-02-01T15:29:05.079Z,94986.91
2023-02-01T15:31:36.019Z,94993.75
2023-02-01T15:34:02.653Z,94989.09
2023-02-01T15:36:29.897Z,94991.91
2023-02-01T15:39:19.364Z,94990.44
2023-02-01T15:41:47.909Z,94988.03
2023-02-01T15:44:33.311Z,94986.81
2023-02-01T15:47:00.757Z,94983.56
2023-02-01T15:49:29.323Z,94990.78
2023-02-01T15:51:56.596Z,94992.78
2023-02-01T15:54:28.737Z,94984.53
2023-02-01T15:56:56.872Z,94987.16
2023-02-01T15:59:26.037Z,94984.94
2023-02-01T16:01:52.732Z,94986.72
2023-02-01T16:04:21.678Z,94991.16
2023-02-01T16:06:50.152Z,94982.69
2023-02-01T16:09:18.108Z,94984.69
2023-02-01T16:11:49.063Z,94994.34
2023-02-01T16:14:15.907Z,94990.69
2023-02-01T16:16:42.456Z,94986.00
2023-02-01T16:19:08.921Z,94993.78
2023-02-01T16:21:35.385Z,94993.53
2023-02-01T16:24:04.893Z,94993.28
2023-02-01T16:26:32.760Z,94990.03
2023-02-01T16:28:59.899Z,94995.22
2023-02-01T16:31:28.667Z,95002.25
2023-02-01T16:33:55.181Z,95009.84
2023-02-01T16:36:22.535Z,95004.63
2023-02-01T16:38:50.541Z,95013.34
2023-02-01T16:41:18.370Z,95007.88
2023-02-01T16:43:45.489Z,95005.00
2023-02-01T16:46:16.934Z,95011.25
2023-02-01T16:48:47.014Z,95017.00
2023-02-01T16:51:14.951Z,95018.84
2023-02-01T16:53:53.384Z,95031.66
2023-02-01T16:56:22.236Z,95036.63
2023-02-01T16:58:48.721Z,95032.69
2023-02-01T17:01:16.281Z,95024.50
2023-02-01T17:03:44.189Z,95022.34
2023-02-01T17:06:11.855Z,95018.38
2023-02-01T17:08:42.647Z,95026.28
2023-02-01T17:11:10.237Z,95036.69
2023-02-01T17:13:37.141Z,95033.16
2023-02-01T17:16:23.969Z,95033.53
2023-02-01T17:18:58.445Z,95039.03
2023-02-01T17:21:26.851Z,95041.66
2023-02-01T17:23:53.847Z,95043.00
2023-02-01T17:26:20.407Z,95044.88
2023-02-01T17:28:46.901Z,95052.28
2023-02-01T17:31:14.809Z,95050.66
2023-02-01T17:33:41.711Z,95051.56
2023-02-01T17:36:12.346Z,95042.34
2023-02-01T17:38:38.789Z,95045.41
2023-02-01T17:41:05.298Z,95046.41
2023-02-01T17:43:31.785Z,95044.44
2023-02-01T17:46:06.986Z,95042.53
2023-02-01T17:48:33.547Z,95040.53
2023-02-01T17:51:00.887Z,95039.94
2023-02-01T17:53:28.274Z,95034.69
2023-02-01T17:55:56.812Z,95026.84
2023-02-01T17:58:23.528Z,95019.72
2023-02-01T18:00:50.347Z,95018.06
2023-02-01T18:03:30.279Z,95021.97
2023-02-01T18:05:57.768Z,95028.66
2023-02-01T18:08:25.593Z,95031.34
2023-02-01T18:10:54.419Z,95022.16
2023-02-01T18:13:21.396Z,95023.50
2023-02-01T18:15:48.366Z,95033.59
2023-02-01T18:18:14.894Z,95031.41
2023-02-01T18:20:43.573Z,95031.22
2023-02-01T18:23:14.448Z,95028.28
2023-02-01T18:25:41.065Z,95021.13
2023-02-01T18:28:07.523Z,95015.91
2023-02-01T18:30:34.508Z,95021.13
2023-02-01T18:33:01.056Z,95026.09
2023-02-01T18:35:28.768Z,95024.31
2023-02-01T18:37:58.622Z,95030.63
2023-02-01T18:40:33.087Z,95017.16
2023-02-01T18:42:59.957Z,95023.38
2023-02-01T18:45:36.891Z,95025.03
2023-02-01T18:48:04.155Z,95017.38
2023-02-01T18:50:31.533Z,95015.34
2023-02-01T18:52:59.528Z,95024.28
2023-02-01T18:55:26.789Z,95019.50
2023-02-01T18:57:53.573Z,95005.25
2023-02-01T19:00:21.037Z,95014.88
2023-02-01T19:02:48.221Z,95004.03
2023-02-01T19:05:14.998Z,94998.19
2023-02-01T19:07:42.832Z,94994.59
2023-02-01T19:10:11.612Z,94989.88
2023-02-01T19:12:39.091Z,95002.00
2023-02-01T19:15:07.146Z,94999.75
2023-02-01T19:17:33.761Z,95006.16
2023-02-01T19:20:00.413Z,95002.66
2023-02-01T19:22:27.303Z,95000.84
2023-02-01T19:24:54.784Z,95002.09
2023-02-01T19:27:21.593Z,94988.03
2023-02-01T19:29:48.214Z,94980.00
2023-02-01T19:32:14.762Z,94987.28
2023-02-01T19:34:41.215Z,94988.09
2023-02-01T19:37:07.831Z,94974.81
2023-02-01T19:39:34.314Z,94977.63
2023-02-01T19:42:02.243Z,94968.09
2023-02-01T19:44:29.844Z,94961.22
2023-02-01T19:46:56.449Z,94960.59
2023-02-01T19:49:22.896Z,94971.44
2023-02-01T19:51:49.343Z,94979.66
2023-02-01T19:54:16.287Z,94984.63
2023-02-01T19:56:43.746Z,94992.09
2023-02-01T19:59:11.344Z,94978.84
2023-02-01T20:01:38.223Z,94992.75
2023-02-01T20:04:06.463Z,94981.28
2023-02-01T20:06:33.913Z,94994.34
2023-02-01T20:09:00.549Z,94985.81
2023-02-01T20:11:27.049Z,94988.16
2023-02-01T20:13:53.980Z,94990.06
2023-02-01T20:16:21.132Z,94983.22
2023-02-01T20:18:47.883Z,94991.06
2023-02-01T20:21:15.131Z,94982.84
2023-02-01T20:23:41.922Z,94977.25
2023-02-01T20:26:11.321Z,94982.91
2023-02-01T20:28:38.572Z,94974.09
2023-02-01T20:31:05.595Z,94963.72
2023-02-01T20:33:32.252Z,94965.31
2023-02-01T20:35:58.856Z,94970.38
2023-02-01T20:38:25.486Z,94968.56
2023-02-01T20:40:51.926Z,94963.34
2023-02-01T20:43:18.998Z,94967.31
2023-02-01T20:45:45.441Z,94975.63
2023-02-01T20:48:12.240Z,94964.34
2023-02-01T20:50:38.853Z,94961.56
2023-02-01T20:53:05.322Z,94970.03
2023-02-01T20:55:31.911Z,94965.81
2023-02-01T20:57:58.327Z,94965.19
2023-02-01T21:00:24.836Z,94969.22
2023-02-01T21:02:51.398Z,94963.19
2023-02-01T21:05:17.940Z,94968.78
2023-02-01T21:07:44.506Z,94962.56
2023-02-01T21:10:11.560Z,94971.03
2023-02-01T21:12:38.147Z,94963.19
2023-02-01T21:15:05.343Z,94963.47
2023-02-01T21:17:32.410Z,94968.69
2023-02-01T21:19:59.108Z,94959.03
2023-02-01T21:22:25.607Z,94956.44
2023-02-01T21:24:52.062Z,94961.81
2023-02-01T21:27:18.535Z,94960.84
2023-02-01T21:29:44.991Z,94965.06
2023-02-01T21:32:11.516Z,94972.13
2023-02-01T21:34:37.925Z,94962.94
2023-02-01T21:37:04.356Z,94965.56
2023-02-01T21:39:30.839Z,94965.19
2023-02-01T21:42:16.723Z,94961.22
2023-02-01T21:44:46.227Z,94957.22
2023-02-01T21:47:13.239Z,94955.41
2023-02-01T21:49:39.771Z,94966.06
2023-02-01T21:52:06.640Z,94952.81
2023-02-01T21:54:33.169Z,94955.88
2023-02-01T21:56:59.605Z,94949.19
2023-02-01T21:59:26.019Z,94947.66
2023-02-01T22:01:52.469Z,94946.03
2023-02-01T22:04:18.981Z,94951.59
2023-02-01T22:06:46.025Z,94948.66
2023-02-01T22:09:24.963Z,94938.19
2023-02-01T22:11:52.151Z,94939.16
2023-02-01T22:14:19.114Z,94939.16
2023-02-01T22:16:46.179Z,94933.31
2023-02-01T22:19:12.917Z,94935.50
2023-02-01T22:21:41.898Z,94916.38
2023-02-01T22:24:09.652Z,94919.38
2023-02-01T22:26:36.335Z,94910.91
2023-02-01T22:29:03.128Z,94909.63
2023-02-01T22:31:29.685Z,94910.00
2023-02-01T22:33:56.936Z,94893.69
2023-02-01T22:36:25.243Z,94899.94
2023-02-01T22:38:52.638Z,94897.66
2023-02-01T22:41:19.850Z,94892.03
2023-02-01T22:43:46.887Z,94886.94
2023-02-01T22:46:14.637Z,94885.34
2023-02-01T22:48:41.978Z,94882.47
2023-02-01T22:51:11.926Z,94878.78
2023-02-01T22:53:38.426Z,94879.97
2023-02-01T22:56:06.449Z,94869.44
2023-02-01T22:58:35.917Z,94861.50
2023-02-01T23:01:09.120Z,94867.38
2023-02-01T23:03:36.514Z,94864.50
2023-02-01T23:06:03.295Z,94864.03
2023-02-01T23:08:29.750Z,94867.72
2023-02-01T23:11:00.041Z,94871.34
2023-02-01T23:13:26.562Z,94867.66
2023-02-01T23:15:53.167Z,94873.69
2023-02-01T23:18:19.729Z,94872.63
2023-02-01T23:20:46.199Z,94869.03
2023-02-01T23:23:12.631Z,94869.31
2023-02-01T23:25:39.060Z,94866.69
2023-02-01T23:28:05.548Z,94860.19
2023-02-01T23:30:32.060Z,94865.69
2023-02-01T23:32:58.637Z,94857.13
2023-02-01T23:35:25.492Z,94859.38
2023-02-01T23:37:52.095Z,94852.81
2023-02-01T23:40:18.676Z,94848.19
2023-02-01T23:43:05.282Z,94848.19
2023-02-01T23:45:31.712Z,94845.56
2023-02-01T23:47:58.125Z,94851.25
2023-02-01T23:50:24.609Z,94842.25
2023-02-01T23:52:51.018Z,94848.88
2023-02-01T23:55:19.610Z,94835.22
2023-02-01T23:57:46.049Z,94839.00
